Panfilov, Kazakhstan
Current Conditions -  °F | °C
As of 1:00 PM on Thursday 18 Dec 2014 (Local Time) from UAAA Reporting Station
Smoke Smoke  
Wind Chill: 28°   Ceiling: 20000
Heat Index: 28°   Visibility: 0.75mi
Dew Point: 16°   Wind: 2mph
Humidity: 59%   Direction: 350°N
Pressure: 30.24"   Gusts: NA
Location:  44.17°N, 80°E
Report Text: UAAA 180700Z 35001MPS 1200 R05L/1800N R05R/1200N FU SCT100BKN200 M02/M09 Q1024 R88/9///50 NOSIG
Loading
Personal Weather Stations






























Interactive Weather Map New forecast layout! Learn more

10-Day Weather Forecast

Advertisements
Track Severe Weather on mobile